Time;durP1;ratioP1;P1;durP2;ratioP2;P2;SDS_P1;SDS_P2;PMS_P1;PMS_P2;Temp;Humidity;BMP_temperature;BMP_pressure;BME280_temperature;BME280_humidity;BME280_pressure;Samples;Min_cycle;Max_cycle;Signal;HPM_P1;HPM_P2
2021/07/25 00:05:17;;;;;;;3.08;1.80;;;26.40;28.60;;;;;;21173369;28;20100;-69
2021/07/25 00:15:20;;;;;;;4.38;1.80;;;26.20;28.20;;;;;;21171860;28;20134;-71
2021/07/25 00:25:22;;;;;;;2.72;1.83;;;26.00;28.50;;;;;;21171582;28;20519;-71
2021/07/25 00:35:26;;;;;;;3.65;1.80;;;25.90;28.90;;;;;;21170082;28;20044;-70
2021/07/25 00:45:29;;;;;;;4.20;1.92;;;25.80;29.10;;;;;;21170008;28;20075;-69
2021/07/25 00:55:32;;;;;;;3.03;1.98;;;25.80;29.50;;;;;;21169407;28;20070;-70
2021/07/25 01:06:05;;;;;;;7.50;2.65;;;25.80;29.60;;;;;;21168573;28;20507;-64
2021/07/25 01:16:10;;;;;;;3.85;2.10;;;25.80;29.70;;;;;;21166155;28;20073;-63
2021/07/25 01:26:16;;;;;;;2.78;1.48;;;25.60;30.40;;;;;;21165374;28;20052;-60
2021/07/25 01:36:23;;;;;;;3.88;1.50;;;25.50;30.90;;;;;;21166447;28;20378;-62
2021/07/25 01:46:28;;;;;;;1.98;1.38;;;25.40;31.20;;;;;;21164845;28;20055;-63
2021/07/25 01:56:31;;;;;;;2.30;1.50;;;25.30;31.90;;;;;;21163426;28;20048;-61
2021/07/25 02:06:37;;;;;;;3.20;1.40;;;25.20;32.70;;;;;;21196710;28;20131;-67
2021/07/25 02:16:40;;;;;;;3.42;1.63;;;25.10;33.10;;;;;;21165747;28;20044;-67
2021/07/25 02:26:43;;;;;;;2.03;1.40;;;25.10;33.70;;;;;;21167388;28;20048;-67
2021/07/25 02:36:46;;;;;;;3.38;1.80;;;25.00;34.00;;;;;;21181030;28;20097;-61
2021/07/25 02:46:49;;;;;;;3.72;1.83;;;25.00;34.50;;;;;;21186719;28;20060;-66
2021/07/25 02:56:51;;;;;;;2.30;1.58;;;25.00;34.70;;;;;;21179234;28;20063;-65
2021/07/25 03:06:57;;;;;;;2.97;1.70;;;24.90;35.30;;;;;;21178720;28;20051;-68
2021/07/25 03:17:01;;;;;;;2.72;1.77;;;24.90;35.50;;;;;;21176633;28;20452;-62
2021/07/25 03:27:07;;;;;;;4.20;1.80;;;24.80;36.00;;;;;;21172246;28;20079;-69
2021/07/25 03:37:10;;;;;;;2.45;1.95;;;24.70;36.60;;;;;;21169805;28;20052;-69
2021/07/25 03:47:32;;;;;;;2.63;1.67;;;24.60;36.80;;;;;;21155590;28;20165;-62
2021/07/25 03:57:39;;;;;;;2.67;1.85;;;24.30;37.30;;;;;;21168396;28;20048;-70
2021/07/25 04:07:49;;;;;;;2.65;1.80;;;24.20;37.40;;;;;;21168140;28;20082;-63
2021/07/25 04:18:05;;;;;;;3.65;2.00;;;24.10;37.70;;;;;;21168259;28;20043;-62
2021/07/25 04:28:20;;;;;;;3.65;1.88;;;24.00;37.90;;;;;;21130364;28;1194982;-61
2021/07/25 04:38:34;;;;;;;3.53;1.75;;;24.00;38.20;;;;;;21154751;28;20048;-69
2021/07/25 04:49:11;;;;;;;3.40;1.80;;;23.90;38.30;;;;;;21169256;28;20104;-62
2021/07/25 04:59:40;;;;;;;3.72;1.98;;;23.80;38.50;;;;;;21169048;28;20126;-67
2021/07/25 05:09:50;;;;;;;4.13;2.10;;;23.70;38.80;;;;;;21167529;28;20255;-63
2021/07/25 05:20:14;;;;;;;6.28;2.45;;;23.60;39.10;;;;;;21150375;28;20066;-69
2021/07/25 05:30:24;;;;;;;4.78;2.63;;;23.60;39.30;;;;;;21166051;28;20051;-69
2021/07/25 05:40:31;;;;;;;4.57;2.47;;;23.20;39.30;;;;;;21165898;28;20503;-66
2021/07/25 05:50:35;;;;;;;2.85;2.03;;;23.10;38.90;;;;;;21164455;28;20048;-69
2021/07/25 06:00:39;;;;;;;4.03;2.00;;;22.90;39.10;;;;;;21163472;28;20078;-70
2021/07/25 06:10:43;;;;;;;5.15;1.95;;;22.90;38.90;;;;;;21162980;28;20055;-67
2021/07/25 06:20:46;;;;;;;5.65;2.67;;;22.60;38.60;;;;;;21163516;28;20048;-69
2021/07/25 06:30:51;;;;;;;4.80;2.58;;;22.60;38.10;;;;;;21162957;28;20055;-72
2021/07/25 06:40:57;;;;;;;3.40;2.67;;;22.60;38.60;;;;;;21162863;28;20122;-70
2021/07/25 06:51:03;;;;;;;4.22;2.13;;;22.70;38.30;;;;;;21162519;28;20054;-65
2021/07/25 07:01:05;;;;;;;4.68;2.70;;;22.70;38.50;;;;;;21144699;28;20464;-68
2021/07/25 07:11:07;;;;;;;7.93;2.83;;;23.20;37.30;;;;;;21163304;28;20393;-69
2021/07/25 07:21:09;;;;;;;5.95;2.55;;;23.20;37.20;;;;;;21176300;28;20795;-66
2021/07/25 07:31:13;;;;;;;4.80;2.63;;;23.30;37.30;;;;;;21177202;28;20047;-68
2021/07/25 07:41:17;;;;;;;6.65;2.25;;;23.80;37.20;;;;;;21156748;28;20131;-64
2021/07/25 07:51:21;;;;;;;12.77;3.78;;;23.90;36.90;;;;;;21175199;28;20488;-64
2021/07/25 08:01:24;;;;;;;5.05;2.42;;;24.00;36.60;;;;;;21173317;28;20054;-62
2021/07/25 08:11:30;;;;;;;4.05;2.78;;;24.70;35.50;;;;;;21171351;28;20052;-63
2021/07/25 08:21:33;;;;;;;4.28;2.15;;;25.00;34.20;;;;;;21170985;28;20055;-63
2021/07/25 08:31:36;;;;;;;6.55;2.90;;;25.50;33.20;;;;;;21168830;28;20525;-64
2021/07/25 08:41:48;;;;;;;8.23;2.60;;;26.00;32.70;;;;;;21170598;28;20082;-63
2021/07/25 08:51:58;;;;;;;4.17;2.83;;;26.60;32.20;;;;;;21168801;28;20105;-68
2021/07/25 09:02:02;;;;;;;4.00;2.05;;;26.90;31.60;;;;;;21206250;28;20048;-69
2021/07/25 09:12:07;;;;;;;4.55;2.30;;;27.40;30.70;;;;;;21199722;28;20057;-66
2021/07/25 09:22:14;;;;;;;3.50;1.95;;;27.20;30.80;;;;;;21151486;28;20216;-71
2021/07/25 09:32:19;;;;;;;4.45;2.95;;;27.50;30.10;;;;;;21166500;28;20055;-68
2021/07/25 09:42:31;;;;;;;6.32;2.67;;;27.90;29.40;;;;;;21165447;28;20044;-69
2021/07/25 09:52:38;;;;;;;2.88;2.00;;;28.60;28.70;;;;;;21165010;28;20044;-70
2021/07/25 10:02:44;;;;;;;3.47;2.25;;;28.80;27.90;;;;;;21163463;28;20043;-67
2021/07/25 10:12:47;;;;;;;3.20;2.17;;;28.60;27.70;;;;;;21163504;28;20048;-68
2021/07/25 10:22:52;;;;;;;2.90;2.05;;;29.10;27.30;;;;;;21162626;28;20096;-69
2021/07/25 10:32:56;;;;;;;3.35;2.30;;;29.10;27.40;;;;;;21166072;28;20107;-64
2021/07/25 10:43:00;;;;;;;4.80;2.38;;;29.30;27.10;;;;;;21144018;28;20066;-69
2021/07/25 10:53:03;;;;;;;5.07;2.25;;;29.40;26.50;;;;;;21172502;28;20092;-65
2021/07/25 11:03:07;;;;;;;4.40;2.10;;;29.60;26.40;;;;;;21158746;28;20048;-64
2021/07/25 11:13:13;;;;;;;2.78;2.25;;;29.60;26.30;;;;;;21176229;28;20104;-69
2021/07/25 11:23:21;;;;;;;5.25;2.17;;;29.90;25.80;;;;;;21175967;28;20043;-69
2021/07/25 11:33:47;;;;;;;3.83;2.40;;;29.90;24.80;;;;;;21174988;28;20062;-68
2021/07/25 11:44:01;;;;;;;5.20;3.65;;;30.10;24.20;;;;;;21156216;28;20044;-63
2021/07/25 11:54:04;;;;;;;2.92;2.17;;;30.20;24.20;;;;;;21173352;28;20484;-68
2021/07/25 12:04:17;;;;;;;2.35;1.90;;;30.40;24.70;;;;;;21172974;28;20043;-67
2021/07/25 12:14:27;;;;;;;4.47;3.10;;;30.40;23.70;;;;;;21171698;28;20083;-62
2021/07/25 12:24:31;;;;;;;3.53;2.38;;;30.30;24.30;;;;;;21171581;28;20126;-65
2021/07/25 12:34:34;;;;;;;3.70;1.90;;;30.60;23.60;;;;;;21170136;28;20466;-61
2021/07/25 12:44:38;;;;;;;11.63;8.48;;;30.70;23.40;;;;;;21169702;28;20056;-62
2021/07/25 12:54:42;;;;;;;5.07;2.05;;;30.80;23.40;;;;;;21168817;28;20112;-63
2021/07/25 13:04:45;;;;;;;4.10;2.22;;;31.00;23.30;;;;;;21167185;28;20075;-63
2021/07/25 13:14:51;;;;;;;4.20;3.78;;;31.30;23.00;;;;;;21165437;28;20058;-64
2021/07/25 13:24:54;;;;;;;2.58;1.80;;;31.10;23.70;;;;;;21148292;28;20051;-64
2021/07/25 13:34:58;;;;;;;4.55;2.88;;;31.30;23.20;;;;;;21165806;28;20044;-71
2021/07/25 13:45:02;;;;;;;2.97;2.10;;;31.40;23.10;;;;;;21163910;28;20100;-69
2021/07/25 13:55:06;;;;;;;3.35;2.47;;;31.50;24.00;;;;;;21163938;28;20143;-69
2021/07/25 14:05:12;;;;;;;2.78;2.42;;;31.60;23.00;;;;;;21166673;28;20499;-69
2021/07/25 14:15:14;;;;;;;3.72;3.20;;;31.70;23.10;;;;;;21167628;28;20392;-66
2021/07/25 14:25:16;;;;;;;4.28;2.72;;;31.80;22.80;;;;;;21210362;28;20119;-67
2021/07/25 14:35:19;;;;;;;3.50;3.13;;;31.60;22.80;;;;;;21202694;28;20130;-69
2021/07/25 14:45:21;;;;;;;4.43;3.20;;;31.60;22.70;;;;;;21204221;28;20044;-68
2021/07/25 14:55:25;;;;;;;4.88;4.15;;;31.90;22.40;;;;;;21194700;28;20051;-70
2021/07/25 15:05:29;;;;;;;5.95;5.28;;;32.00;22.70;;;;;;21167835;28;20047;-71
2021/07/25 15:15:34;;;;;;;3.83;3.42;;;32.20;21.50;;;;;;21160921;28;20043;-68
2021/07/25 15:25:35;;;;;;;6.20;4.28;;;32.10;21.80;;;;;;21177648;28;20096;-70
2021/07/25 15:35:38;;;;;;;3.92;3.53;;;32.20;20.00;;;;;;21176259;28;20051;-68
2021/07/25 15:45:39;;;;;;;4.07;3.28;;;32.40;19.80;;;;;;21175511;28;20044;-69
2021/07/25 15:55:42;;;;;;;4.85;4.20;;;32.50;19.20;;;;;;21173930;28;20058;-68
2021/07/25 16:05:45;;;;;;;6.10;3.85;;;32.60;18.80;;;;;;21174844;28;20058;-71
2021/07/25 16:15:47;;;;;;;8.10;5.68;;;32.50;18.80;;;;;;21177616;28;20082;-69
2021/07/25 16:25:49;;;;;;;5.57;5.05;;;32.30;19.70;;;;;;21211820;28;20093;-64
2021/07/25 16:35:52;;;;;;;4.95;3.30;;;32.20;20.40;;;;;;21205446;28;20451;-64
2021/07/25 16:45:55;;;;;;;3.70;3.20;;;32.10;20.90;;;;;;21169441;28;20093;-64
2021/07/25 16:55:58;;;;;;;5.43;4.25;;;32.10;22.40;;;;;;21169616;28;20388;-67
2021/07/25 17:06:03;;;;;;;3.33;2.55;;;32.10;21.90;;;;;;21167809;28;20047;-64
2021/07/25 17:16:05;;;;;;;3.25;2.55;;;32.00;21.00;;;;;;21166786;28;20498;-64
2021/07/25 17:26:07;;;;;;;2.85;2.30;;;32.10;21.00;;;;;;21165498;28;20392;-63
2021/07/25 17:36:17;;;;;;;3.42;2.80;;;32.10;21.30;;;;;;21165543;28;20514;-64
2021/07/25 17:46:18;;;;;;;3.57;2.50;;;32.00;21.90;;;;;;21164670;28;20079;-67
2021/07/25 17:56:20;;;;;;;4.38;2.70;;;31.50;20.30;;;;;;21166785;28;20389;-70
2021/07/25 18:06:22;;;;;;;3.88;2.90;;;31.30;20.50;;;;;;21164831;28;20427;-68
2021/07/25 18:16:24;;;;;;;3.28;2.50;;;31.10;20.80;;;;;;21162946;28;20411;-67
2021/07/25 18:26:26;;;;;;;4.05;2.83;;;30.90;21.00;;;;;;21144606;28;20519;-64
2021/07/25 18:36:28;;;;;;;6.45;2.70;;;30.60;21.20;;;;;;21161552;28;20101;-65
2021/07/25 18:46:30;;;;;;;3.83;3.42;;;30.60;21.30;;;;;;21161998;28;20118;-65
2021/07/25 18:56:32;;;;;;;4.00;3.10;;;30.40;21.90;;;;;;21162561;28;20476;-66
2021/07/25 19:06:36;;;;;;;4.72;2.72;;;30.10;22.60;;;;;;21160480;28;20043;-64
2021/07/25 19:16:38;;;;;;;3.13;2.45;;;30.00;24.10;;;;;;21175745;28;20534;-64
2021/07/25 19:26:40;;;;;;;4.88;2.50;;;29.70;24.90;;;;;;21175954;28;20492;-63
2021/07/25 19:36:42;;;;;;;5.32;2.90;;;29.50;25.40;;;;;;21176437;28;20052;-67
2021/07/25 19:46:43;;;;;;;6.75;2.80;;;29.10;25.90;;;;;;21174641;28;20051;-66
2021/07/25 19:56:45;;;;;;;5.20;3.25;;;28.90;26.30;;;;;;21175140;28;20328;-67
2021/07/25 20:06:48;;;;;;;4.07;2.35;;;28.70;26.50;;;;;;21155725;28;20043;-72
2021/07/25 20:16:49;;;;;;;4.85;2.47;;;28.60;27.40;;;;;;21175143;28;20078;-70
2021/07/25 20:26:51;;;;;;;5.45;2.60;;;28.30;28.30;;;;;;21138804;28;20047;-68
2021/07/25 20:36:55;;;;;;;4.60;2.70;;;28.00;28.70;;;;;;21154240;28;20430;-66
2021/07/25 20:46:56;;;;;;;4.05;2.08;;;27.80;29.30;;;;;;21170080;28;20047;-67
2021/07/25 20:56:59;;;;;;;2.90;2.40;;;27.60;30.80;;;;;;21170741;28;20087;-72
2021/07/25 21:07:00;;;;;;;4.25;2.10;;;27.30;32.20;;;;;;21168384;28;20047;-64
2021/07/25 21:17:03;;;;;;;3.33;1.50;;;27.00;35.00;;;;;;21148313;28;20056;-64
2021/07/25 21:27:06;;;;;;;3.22;1.27;;;26.60;37.20;;;;;;21165826;28;20093;-63
2021/07/25 21:37:08;;;;;;;8.98;2.13;;;26.20;42.50;;;;;;21164971;28;20047;-68
2021/07/25 21:47:10;;;;;;;4.93;1.45;;;25.80;48.20;;;;;;21164266;28;20058;-65
2021/07/25 21:57:13;;;;;;;12.25;2.22;;;24.70;52.10;;;;;;21163636;28;20044;-61
2021/07/25 22:07:16;;;;;;;3.30;1.73;;;24.30;55.30;;;;;;21164080;28;20461;-64
2021/07/25 22:17:20;;;;;;;6.15;2.70;;;23.60;58.80;;;;;;21163162;28;20051;-65
2021/07/25 22:27:22;;;;;;;4.72;1.92;;;23.60;58.00;;;;;;21177292;28;20052;-63
2021/07/25 22:37:27;;;;;;;7.17;2.77;;;23.40;59.10;;;;;;21169953;28;20134;-69
2021/07/25 22:47:28;;;;;;;6.13;2.47;;;23.20;61.20;;;;;;21184666;28;20044;-69
2021/07/25 22:57:30;;;;;;;4.20;2.07;;;23.00;62.10;;;;;;21196523;28;20052;-67
2021/07/25 23:07:32;;;;;;;4.53;2.17;;;22.90;63.60;;;;;;21195642;28;20043;-69
2021/07/25 23:17:34;;;;;;;4.83;2.73;;;22.50;61.90;;;;;;21166065;28;20050;-68
2021/07/25 23:27:37;;;;;;;4.18;2.10;;;22.10;61.60;;;;;;21181926;28;20765;-66
2021/07/25 23:37:39;;;;;;;3.30;2.00;;;22.00;60.40;;;;;;21180603;28;20051;-68
2021/07/25 23:47:41;;;;;;;3.63;2.60;;;22.10;59.70;;;;;;21180700;28;20229;-68
2021/07/25 23:57:43;;;;;;;4.43;2.70;;;22.80;55.00;;;;;;21176351;28;20086;-68
